createdAt,value
2022-09-20T00:00:48.075Z,5.93
2022-09-20T00:03:15.922Z,3.90
2022-09-20T00:05:44.977Z,4.95
2022-09-20T00:08:16.627Z,5.82
2022-09-20T00:10:43.602Z,4.30
2022-09-20T00:13:12.771Z,8.52
2022-09-20T00:15:44.642Z,5.57
2022-09-20T00:18:11.672Z,4.85
2022-09-20T00:20:48.984Z,6.20
2022-09-20T00:23:16.307Z,3.15
2022-09-20T00:25:43.621Z,3.58
2022-09-20T00:28:11.260Z,5.68
2022-09-20T00:30:38.963Z,4.03
2022-09-20T00:33:05.698Z,3.47
2022-09-20T00:35:32.484Z,4.22
2022-09-20T00:37:59.186Z,4.22
2022-09-20T00:40:29.097Z,3.83
2022-09-20T00:42:55.864Z,3.95
2022-09-20T00:45:28.555Z,4.00
2022-09-20T00:48:30.390Z,3.67
2022-09-20T00:51:06.980Z,4.28
2022-09-20T00:53:38.460Z,2.95
2022-09-20T00:56:09.187Z,3.45
2022-09-20T00:58:40.882Z,3.80
2022-09-20T01:01:07.913Z,3.38
2022-09-20T01:03:38.460Z,4.10
2022-09-20T01:06:11.873Z,4.40
2022-09-20T01:08:41.423Z,3.28
2022-09-20T01:11:08.462Z,11.88
2022-09-20T01:13:35.086Z,4.00
2022-09-20T01:16:04.725Z,3.30
2022-09-20T01:18:33.651Z,2.88
2022-09-20T01:21:01.504Z,4.22
2022-09-20T01:23:55.652Z,4.18
2022-09-20T01:26:45.451Z,4.22
2022-09-20T01:29:18.055Z,3.60
2022-09-20T01:31:54.733Z,4.95
2022-09-20T01:34:45.015Z,5.35
2022-09-20T01:37:24.035Z,4.25
2022-09-20T01:40:10.844Z,4.10
2022-09-20T01:42:40.986Z,3.85
2022-09-20T01:45:28.484Z,5.40
2022-09-20T01:48:04.109Z,4.53
2022-09-20T01:50:52.434Z,8.50
2022-09-20T01:53:41.044Z,5.40
2022-09-20T01:56:10.787Z,6.78
2022-09-20T01:59:22.786Z,4.75
2022-09-20T02:01:52.002Z,6.05
2022-09-20T02:04:43.536Z,6.03
2022-09-20T02:07:28.686Z,4.53
2022-09-20T02:10:34.153Z,3.78
2022-09-20T02:13:08.862Z,4.20
2022-09-20T02:15:59.542Z,6.50
2022-09-20T02:18:26.246Z,4.47
2022-09-20T02:21:17.781Z,4.05
2022-09-20T02:24:04.707Z,3.78
2022-09-20T02:26:31.338Z,6.57
2022-09-20T02:29:35.651Z,5.28
2022-09-20T02:32:40.870Z,4.10
2022-09-20T02:35:16.624Z,7.25
2022-09-20T02:38:08.816Z,3.35
2022-09-20T02:40:57.204Z,6.07
2022-09-20T02:43:48.790Z,4.97
2022-09-20T02:46:22.683Z,5.15
2022-09-20T02:49:08.426Z,5.22
2022-09-20T02:51:43.834Z,4.25
2022-09-20T02:54:32.007Z,3.53
2022-09-20T02:57:20.371Z,5.07
2022-09-20T02:59:54.116Z,5.65
2022-09-20T03:02:30.926Z,4.47
2022-09-20T03:05:25.984Z,4.15
2022-09-20T03:08:08.195Z,4.80
2022-09-20T03:10:54.236Z,5.07
2022-09-20T03:13:49.550Z,4.28
2022-09-20T03:16:22.705Z,4.97
2022-09-20T03:21:38.901Z,3.65
2022-09-20T03:24:20.720Z,5.50
2022-09-20T03:26:50.346Z,3.72
2022-09-20T03:29:37.750Z,3.70
2022-09-20T03:32:32.068Z,3.95
2022-09-20T03:34:58.665Z,4.70
2022-09-20T03:37:44.054Z,3.17
2022-09-20T03:40:41.681Z,4.75
2022-09-20T03:43:24.623Z,5.38
2022-09-20T03:45:54.667Z,4.22
2022-09-20T03:48:52.243Z,4.43
2022-09-20T03:51:23.718Z,4.25
2022-09-20T03:53:59.896Z,3.47
2022-09-20T03:57:03.504Z,5.05
2022-09-20T03:59:45.299Z,4.57
2022-09-20T04:02:34.863Z,4.32
2022-09-20T04:05:18.435Z,3.75
2022-09-20T04:10:41.715Z,5.28
2022-09-20T04:13:37.695Z,4.22
2022-09-20T04:16:15.884Z,4.13
2022-09-20T04:18:45.485Z,4.82
2022-09-20T04:21:42.959Z,4.63
2022-09-20T04:24:22.805Z,4.88
2022-09-20T04:27:00.326Z,5.07
2022-09-20T04:29:32.612Z,3.88
2022-09-20T04:32:36.922Z,5.80
2022-09-20T04:35:51.648Z,4.65
2022-09-20T04:38:21.054Z,6.88
2022-09-20T04:41:13.041Z,7.80
2022-09-20T04:44:06.530Z,4.15
2022-09-20T04:50:11.111Z,4.40
2022-09-20T04:53:02.552Z,4.20
2022-09-20T04:55:44.910Z,4.00
2022-09-20T04:58:18.663Z,6.78
2022-09-20T05:01:17.335Z,5.07
2022-09-20T05:04:08.950Z,4.75
2022-09-20T05:06:39.009Z,4.47
2022-09-20T05:09:33.514Z,5.25
2022-09-20T05:12:37.587Z,3.78
2022-09-20T05:18:26.662Z,3.63
2022-09-20T05:21:39.553Z,4.20
2022-09-20T05:24:24.843Z,5.43
2022-09-20T05:26:54.403Z,6.00
2022-09-20T05:29:25.859Z,3.70
2022-09-20T05:32:30.455Z,4.40
2022-09-20T05:35:04.884Z,5.80
2022-09-20T05:37:46.583Z,4.65
2022-09-20T05:40:21.896Z,5.90
2022-09-20T05:43:11.459Z,4.07
2022-09-20T05:46:10.818Z,7.03
2022-09-20T05:48:46.874Z,5.30
2022-09-20T05:52:02.032Z,4.88
2022-09-20T05:54:47.163Z,4.65
2022-09-20T05:57:56.609Z,4.70
2022-09-20T06:00:29.193Z,5.25
2022-09-20T06:03:05.551Z,5.38
2022-09-20T06:06:14.752Z,4.25
2022-09-20T06:08:50.523Z,5.45
2022-09-20T06:11:49.034Z,5.22
2022-09-20T06:14:51.186Z,5.07
2022-09-20T06:17:53.311Z,3.85
2022-09-20T06:20:29.970Z,5.82
2022-09-20T06:23:02.037Z,6.32
2022-09-20T06:25:38.110Z,4.75
2022-09-20T06:28:14.521Z,6.80
2022-09-20T06:30:47.889Z,3.90
2022-09-20T06:33:17.235Z,4.72
2022-09-20T06:35:46.583Z,4.72
2022-09-20T06:38:56.648Z,4.53
2022-09-20T06:41:31.071Z,4.07
2022-09-20T06:43:59.594Z,6.38
2022-09-20T06:46:31.906Z,6.10
2022-09-20T06:48:59.034Z,10.23
2022-09-20T06:51:29.012Z,6.22
2022-09-20T06:53:57.489Z,5.10
2022-09-20T06:56:28.218Z,4.65
2022-09-20T06:58:54.953Z,5.53
2022-09-20T07:01:29.733Z,5.25
2022-09-20T07:03:57.572Z,5.85
2022-09-20T07:06:24.318Z,6.15
2022-09-20T07:08:51.127Z,5.95
2022-09-20T07:11:18.119Z,5.57
2022-09-20T07:13:46.243Z,7.35
2022-09-20T07:16:17.130Z,6.28
2022-09-20T07:18:44.360Z,5.75
2022-09-20T07:21:16.534Z,5.40
2022-09-20T07:23:45.952Z,7.72
2022-09-20T07:26:25.928Z,5.63
2022-09-20T07:28:53.277Z,5.78
2022-09-20T07:31:23.057Z,6.55
2022-09-20T07:33:49.920Z,11.63
2022-09-20T07:36:16.938Z,6.60
2022-09-20T07:38:51.192Z,10.20
2022-09-20T07:41:23.068Z,9.93
2022-09-20T07:43:51.208Z,8.10
2022-09-20T07:46:18.357Z,7.72
2022-09-20T07:48:45.216Z,6.97
2022-09-20T07:51:13.749Z,5.50
2022-09-20T07:53:41.224Z,6.32
2022-09-20T07:56:12.042Z,6.80
2022-09-20T07:58:39.601Z,6.32
2022-09-20T08:01:09.250Z,4.32
2022-09-20T08:03:36.636Z,6.78
2022-09-20T08:06:07.410Z,7.25
2022-09-20T08:08:36.919Z,5.25
2022-09-20T08:11:06.601Z,4.05
2022-09-20T08:16:24.995Z,5.55
2022-09-20T08:18:56.924Z,7.43
2022-09-20T08:21:26.180Z,5.22
2022-09-20T08:23:53.675Z,6.63
2022-09-20T08:26:24.799Z,7.65
2022-09-20T08:28:56.985Z,5.80
2022-09-20T08:31:27.028Z,6.60
2022-09-20T08:33:54.843Z,10.38
2022-09-20T08:36:25.137Z,7.18
2022-09-20T08:41:51.768Z,6.57
2022-09-20T08:44:36.566Z,5.38
2022-09-20T08:47:23.935Z,6.30
2022-09-20T08:49:57.184Z,4.75
2022-09-20T08:55:22.167Z,7.00
2022-09-20T08:57:57.551Z,5.97
2022-09-20T09:00:34.826Z,6.78
2022-09-20T09:05:53.229Z,5.15
2022-09-20T09:08:26.354Z,6.22
2022-09-20T09:13:32.627Z,6.80
2022-09-20T09:16:03.082Z,6.65
2022-09-20T09:18:35.030Z,7.95
2022-09-20T09:21:05.163Z,5.10
2022-09-20T09:23:42.356Z,4.38
2022-09-20T09:26:21.475Z,5.88
2022-09-20T09:29:34.243Z,5.60
2022-09-20T09:32:21.501Z,6.97
2022-09-20T09:34:53.483Z,5.10
2022-09-20T09:37:29.213Z,5.78
2022-09-20T09:40:16.718Z,5.10
2022-09-20T09:42:59.044Z,5.47
2022-09-20T09:45:42.103Z,3.92
2022-09-20T09:48:18.123Z,6.30
2022-09-20T09:50:47.849Z,7.85
2022-09-20T09:53:37.139Z,6.90
2022-09-20T09:56:15.509Z,5.40
2022-09-20T09:59:10.780Z,6.65
2022-09-20T10:01:56.769Z,6.90
2022-09-20T10:04:41.902Z,9.35
2022-09-20T10:07:28.533Z,14.98
2022-09-20T10:10:08.961Z,10.05
2022-09-20T10:12:47.303Z,10.05
2022-09-20T10:15:28.307Z,10.25
2022-09-20T10:18:24.733Z,7.88
2022-09-20T10:20:55.891Z,8.50
2022-09-20T10:24:05.636Z,7.28
2022-09-20T10:26:55.898Z,6.85
2022-09-20T10:29:31.839Z,7.00
2022-09-20T10:32:13.628Z,6.55
2022-09-20T10:34:49.529Z,5.63
2022-09-20T10:37:59.700Z,6.93
2022-09-20T10:40:59.689Z,6.55
2022-09-20T10:43:52.623Z,4.88
2022-09-20T10:46:51.687Z,4.72
2022-09-20T10:49:29.690Z,4.78
2022-09-20T10:52:19.786Z,5.25
2022-09-20T10:55:25.209Z,5.90
2022-09-20T11:01:10.776Z,6.95
2022-09-20T11:04:04.717Z,6.88
2022-09-20T11:06:48.062Z,7.10
2022-09-20T11:09:21.016Z,7.10
2022-09-20T11:11:56.257Z,6.47
2022-09-20T11:14:32.970Z,5.85
2022-09-20T11:17:29.879Z,7.50
2022-09-20T11:20:08.243Z,10.13
2022-09-20T11:22:42.725Z,5.47
2022-09-20T11:25:23.983Z,5.80
2022-09-20T11:30:25.960Z,6.00
2022-09-20T11:33:24.762Z,7.70
2022-09-20T11:35:56.226Z,6.43
2022-09-20T11:38:35.264Z,5.60
2022-09-20T11:41:11.927Z,6.55
2022-09-20T11:43:46.543Z,7.28
2022-09-20T11:46:25.197Z,5.78
2022-09-20T11:49:10.854Z,7.15
2022-09-20T11:51:53.211Z,10.02
2022-09-20T11:54:35.741Z,4.85
2022-09-20T11:57:03.523Z,7.07
2022-09-20T11:59:51.076Z,5.93
2022-09-20T12:02:29.041Z,6.80
2022-09-20T12:04:56.700Z,6.20
2022-09-20T12:07:42.113Z,5.72
2022-09-20T12:10:23.958Z,4.90
2022-09-20T12:13:00.348Z,10.20
2022-09-20T12:15:31.379Z,8.25
2022-09-20T12:17:58.046Z,5.78
2022-09-20T12:20:38.962Z,5.70
2022-09-20T12:23:43.170Z,6.25
2022-09-20T12:26:15.734Z,6.13
2022-09-20T12:29:23.927Z,8.90
2022-09-20T12:31:53.455Z,6.07
2022-09-20T12:34:20.229Z,7.88
2022-09-20T12:36:56.019Z,5.65
2022-09-20T12:39:30.098Z,7.45
2022-09-20T12:41:56.903Z,5.85
2022-09-20T12:44:43.950Z,5.97
2022-09-20T12:47:10.541Z,9.00
2022-09-20T12:50:00.335Z,7.70
2022-09-20T12:52:54.093Z,5.53
2022-09-20T12:55:30.343Z,9.55
2022-09-20T12:58:02.090Z,7.40
2022-09-20T13:00:39.064Z,8.82
2022-09-20T13:03:32.028Z,8.15
2022-09-20T13:06:05.808Z,10.02
2022-09-20T13:08:43.000Z,6.50
2022-09-20T13:11:18.793Z,6.07
2022-09-20T13:14:07.225Z,6.78
2022-09-20T13:16:39.872Z,5.85
2022-09-20T13:19:06.920Z,6.95
2022-09-20T13:21:40.699Z,5.20
2022-09-20T13:24:11.130Z,6.05
2022-09-20T13:26:44.438Z,4.40
2022-09-20T13:29:25.586Z,6.47
2022-09-20T13:31:52.285Z,6.63
2022-09-20T13:34:25.897Z,7.05
2022-09-20T13:37:00.996Z,5.53
2022-09-20T13:39:34.556Z,7.15
2022-09-20T13:44:58.872Z,6.07
2022-09-20T13:47:28.660Z,8.70
2022-09-20T13:50:10.405Z,6.85
2022-09-20T13:52:46.838Z,8.45
2022-09-20T13:55:44.215Z,8.65
2022-09-20T13:58:34.757Z,10.57
2022-09-20T14:01:05.452Z,6.45
2022-09-20T14:03:34.715Z,7.30
2022-09-20T14:06:05.740Z,8.40
2022-09-20T14:08:38.695Z,8.00
2022-09-20T14:11:07.484Z,9.50
2022-09-20T14:13:41.665Z,7.57
2022-09-20T14:16:09.812Z,8.23
2022-09-20T14:18:39.720Z,7.22
2022-09-20T14:21:09.595Z,7.85
2022-09-20T14:24:02.251Z,10.00
2022-09-20T14:26:39.359Z,9.55
2022-09-20T14:29:27.923Z,9.20
2022-09-20T14:31:55.898Z,9.90
2022-09-20T14:34:23.602Z,9.52
2022-09-20T14:36:51.220Z,10.88
2022-09-20T14:39:20.106Z,11.18
2022-09-20T14:41:48.677Z,10.75
2022-09-20T14:44:37.188Z,8.55
2022-09-20T14:47:17.890Z,10.80
2022-09-20T14:52:31.450Z,11.82
2022-09-20T14:57:30.143Z,12.07
2022-09-20T14:59:59.740Z,8.40
2022-09-20T15:02:27.615Z,10.02
2022-09-20T15:05:01.030Z,12.60
2022-09-20T15:07:28.321Z,9.43
2022-09-20T15:09:55.017Z,9.73
2022-09-20T15:12:21.913Z,12.90
2022-09-20T15:14:49.086Z,11.38
2022-09-20T15:17:23.252Z,10.18
2022-09-20T15:19:50.953Z,10.25
2022-09-20T15:22:18.292Z,9.93
2022-09-20T15:24:45.935Z,14.48
2022-09-20T15:27:13.573Z,8.90
2022-09-20T15:29:42.111Z,9.50
2022-09-20T15:32:11.474Z,14.93
2022-09-20T15:37:20.801Z,9.95
2022-09-20T15:39:49.926Z,7.40
2022-09-20T15:42:17.813Z,7.47
2022-09-20T15:47:29.731Z,7.55
2022-09-20T15:49:57.755Z,9.63
2022-09-20T15:55:09.606Z,7.88
2022-09-20T15:57:38.027Z,7.70
2022-09-20T16:05:30.515Z,9.23
2022-09-20T16:07:58.542Z,7.97
2022-09-20T16:10:25.266Z,11.80
2022-09-20T16:12:51.973Z,10.13
2022-09-20T16:15:18.962Z,10.32
2022-09-20T16:18:05.916Z,8.60
2022-09-20T16:20:32.698Z,8.90
2022-09-20T16:22:59.452Z,9.07
2022-09-20T16:25:26.294Z,9.13
2022-09-20T16:27:53.022Z,9.00
2022-09-20T16:30:19.834Z,8.32
2022-09-20T16:32:46.714Z,10.50
2022-09-20T16:35:14.013Z,9.07
2022-09-20T16:37:40.712Z,11.10
2022-09-20T16:40:10.849Z,11.93
2022-09-20T16:42:38.220Z,9.40
2022-09-20T16:45:05.279Z,13.68
2022-09-20T16:47:32.041Z,9.07
2022-09-20T16:49:58.808Z,8.80
2022-09-20T16:52:26.662Z,9.65
2022-09-20T16:54:53.471Z,10.18
2022-09-20T16:57:20.209Z,10.30
2022-09-20T16:59:48.045Z,14.02
2022-09-20T17:02:14.781Z,13.80
2022-09-20T17:04:43.916Z,12.20
2022-09-20T17:07:10.663Z,8.68
2022-09-20T17:09:37.375Z,10.27
2022-09-20T17:12:09.484Z,12.88
2022-09-20T17:14:37.195Z,9.03
2022-09-20T17:17:04.217Z,8.52
2022-09-20T17:19:30.928Z,8.15
2022-09-20T17:21:57.651Z,8.82
2022-09-20T17:24:25.351Z,9.65
2022-09-20T17:26:52.425Z,8.60
2022-09-20T17:29:20.622Z,7.30
2022-09-20T17:31:55.107Z,7.68
2022-09-20T17:34:24.786Z,8.07
2022-09-20T17:36:51.651Z,7.55
2022-09-20T17:39:18.914Z,8.38
2022-09-20T17:41:47.658Z,9.05
2022-09-20T17:44:15.607Z,7.88
2022-09-20T17:46:48.159Z,8.20
2022-09-20T17:49:18.104Z,7.60
2022-09-20T17:52:02.948Z,8.07
2022-09-20T17:54:29.770Z,9.25
2022-09-20T17:56:58.733Z,8.02
2022-09-20T17:59:25.561Z,10.05
2022-09-20T18:01:55.586Z,9.40
2022-09-20T18:04:24.652Z,8.35
2022-09-20T18:12:18.939Z,9.95
2022-09-20T18:22:55.330Z,8.63
2022-09-20T18:25:24.416Z,7.70
2022-09-20T18:27:51.609Z,7.63
2022-09-20T18:33:00.349Z,7.53
2022-09-20T18:38:11.894Z,6.75
2022-09-20T18:40:41.355Z,6.63
2022-09-20T18:43:12.462Z,7.95
2022-09-20T18:45:39.284Z,5.97
2022-09-20T18:48:07.645Z,6.35
2022-09-20T18:50:34.934Z,6.43
2022-09-20T18:53:01.799Z,5.75
2022-09-20T18:55:29.091Z,7.00
2022-09-20T18:58:00.676Z,7.55
2022-09-20T19:00:28.534Z,9.18
2022-09-20T19:03:31.432Z,8.32
2022-09-20T19:06:07.663Z,7.60
2022-09-20T19:08:43.259Z,8.23
2022-09-20T19:11:46.912Z,7.93
2022-09-20T19:14:43.935Z,10.55
2022-09-20T19:17:11.787Z,11.75
2022-09-20T19:19:56.034Z,13.05
2022-09-20T19:22:44.861Z,16.60
2022-09-20T19:25:39.727Z,18.67
2022-09-20T19:28:10.330Z,16.55
2022-09-20T19:30:40.659Z,13.55
2022-09-20T19:33:16.421Z,12.05
2022-09-20T19:35:49.577Z,10.05
2022-09-20T19:38:47.499Z,10.55
2022-09-20T19:41:27.723Z,8.73
2022-09-20T19:44:04.397Z,8.98
2022-09-20T19:46:50.372Z,7.53
2022-09-20T19:49:28.774Z,7.07
2022-09-20T19:51:57.158Z,7.82
2022-09-20T19:54:24.727Z,6.78
2022-09-20T19:56:57.368Z,5.82
2022-09-20T19:59:26.163Z,5.50
2022-09-20T20:01:54.164Z,9.52
2022-09-20T20:04:21.459Z,6.20
2022-09-20T20:06:51.254Z,6.80
2022-09-20T20:09:29.923Z,6.95
2022-09-20T20:12:16.064Z,7.82
2022-09-20T20:15:00.943Z,7.13
2022-09-20T20:17:46.483Z,7.32
2022-09-20T20:20:32.285Z,7.63
2022-09-20T20:23:13.606Z,7.47
2022-09-20T20:26:00.267Z,8.05
2022-09-20T20:28:27.570Z,7.47
2022-09-20T20:30:59.147Z,6.38
2022-09-20T20:33:26.976Z,8.20
2022-09-20T20:35:58.533Z,7.43
2022-09-20T20:38:26.723Z,6.80
2022-09-20T20:41:10.149Z,8.05
2022-09-20T20:43:39.239Z,6.13
2022-09-20T20:46:08.013Z,6.60
2022-09-20T20:48:35.079Z,6.88
2022-09-20T20:51:10.486Z,6.90
2022-09-20T20:53:40.877Z,5.05
2022-09-20T20:56:17.743Z,4.05
2022-09-20T20:58:46.188Z,5.38
2022-09-20T21:01:21.723Z,5.78
2022-09-20T21:03:53.225Z,6.43
2022-09-20T21:06:21.732Z,5.63
2022-09-20T21:08:49.745Z,6.18
2022-09-20T21:11:23.588Z,3.67
2022-09-20T21:13:51.533Z,7.07
2022-09-20T21:16:20.889Z,6.25
2022-09-20T21:18:49.029Z,5.10
2022-09-20T21:21:26.120Z,5.63
2022-09-20T21:23:55.708Z,5.90
2022-09-20T21:26:24.342Z,5.88
2022-09-20T21:28:54.062Z,4.03
2022-09-20T21:31:24.029Z,4.68
2022-09-20T21:33:50.811Z,4.40
2022-09-20T21:36:21.849Z,3.58
2022-09-20T21:38:48.792Z,6.00
2022-09-20T21:41:22.538Z,5.80
2022-09-20T21:43:54.016Z,5.60
2022-09-20T21:46:40.619Z,5.18
2022-09-20T21:49:10.296Z,4.93
2022-09-20T21:51:38.193Z,6.22
2022-09-20T21:54:05.512Z,5.35
2022-09-20T21:56:35.003Z,5.88
2022-09-20T21:59:04.562Z,4.88
2022-09-20T22:01:36.764Z,5.32
2022-09-20T22:04:11.829Z,4.23
2022-09-20T22:06:43.421Z,4.18
2022-09-20T22:09:17.595Z,9.90
2022-09-20T22:11:46.492Z,3.88
2022-09-20T22:14:15.161Z,3.60
2022-09-20T22:16:44.246Z,5.03
2022-09-20T22:19:13.635Z,3.60
2022-09-20T22:21:43.315Z,4.47
2022-09-20T22:24:12.030Z,5.53
2022-09-20T22:26:41.095Z,4.68
2022-09-20T22:29:07.869Z,3.80
2022-09-20T22:31:38.022Z,5.93
2022-09-20T22:34:07.427Z,3.17
2022-09-20T22:36:36.808Z,4.55
2022-09-20T22:39:06.271Z,3.15
2022-09-20T22:41:33.924Z,4.45
2022-09-20T22:44:00.682Z,6.20
2022-09-20T22:46:29.773Z,4.68
2022-09-20T22:48:56.730Z,5.15
2022-09-20T22:51:32.436Z,4.05
2022-09-20T22:53:59.625Z,3.42
2022-09-20T22:56:31.260Z,4.50
2022-09-20T22:59:05.587Z,3.53
2022-09-20T23:01:35.249Z,6.50
2022-09-20T23:04:10.366Z,7.18
2022-09-20T23:06:39.559Z,8.63
2022-09-20T23:09:09.935Z,7.15
2022-09-20T23:11:37.972Z,7.60
2022-09-20T23:14:06.103Z,10.43
2022-09-20T23:16:35.620Z,10.05
2022-09-20T23:19:04.201Z,9.77
2022-09-20T23:21:31.629Z,9.68
2022-09-20T23:24:00.326Z,11.10
2022-09-20T23:26:29.861Z,10.43
2022-09-20T23:28:58.785Z,10.15
2022-09-20T23:31:26.697Z,9.85
2022-09-20T23:33:59.065Z,8.00
2022-09-20T23:36:28.425Z,7.90
2022-09-20T23:38:57.005Z,10.70
2022-09-20T23:41:25.761Z,7.05
2022-09-20T23:43:53.169Z,7.57
2022-09-20T23:46:21.853Z,6.88
2022-09-20T23:48:50.512Z,8.07
2022-09-20T23:51:19.470Z,7.10
2022-09-20T23:53:46.922Z,8.32
2022-09-20T23:56:14.338Z,7.82
2022-09-20T23:58:43.193Z,6.97
